Aktualne dane pomiarowe

Uwaga, wersja testowa! Automatyczne pobieranie danych za pomocą narzędzi lub skryptów to umożliwiających jest zabronione.

Dane meteo z obszaru Polski uzyskane na podstawie depesz SYNOP pobieranych co godzinę z NWS. Najedź myszką na symbol przedstawiony w tabeli, aby uzyskać informacje co do jego znaczenia. Prosimy pamiętać, że to testowa wersja strony, która jeszcze nie jest ukończona. Stworzono również jest krótki FAQ dotyczący korzystania z tej podstrony Anomalie temperatury w chwili obecnej odniesione są do okresu referencyjnego 1951-2016. Okres ten będzie później zmieniony na 1981-2010. Kliknij ikonę aby pobrać plik CSV. Kliknij ikonę aby wygenerować mapę synoptyczną dla danego terminu.

Wybierz Datę:    

        

Opole (12530)

Dane terminowe dla wybranej stacji. Kliknij datę, aby otrzymać dane z tego terminu dla wszystkich stacji.

TemperaturaZachmurzenieWiatrCiśnienieOpadyPogoda
 Data t td wb tx tn tg rh  Nt Nl Cl Cm Ch ws wd g1 g2 wx mslp ppp ch 24h 12h t ww ww w1 w2  
2019-08-08 23:00:00 17.0 14.0 14.9--- 8320.0wx-wx1wx--11013.5 994.1 0.6---------
2019-08-08 22:00:00 17.5 14.1 15.2--- 8020.0wx-wx1wx--11013.5 994.2 0.8---------
2019-08-08 21:00:00 18.7 14.3 15.8--- 7620.0wx-wx0---01013.3 994.0 1.1---------
2019-08-08 20:00:00 19.6 13.6 15.7--- 6820.0wx-wx1wx---1012.7 993.5 0.9---------
2019-08-08 19:00:00 20.6 13.6 16.1--- 6420.0wxwxwxwx1wx--11012.5 993.4 0.8---------
2019-08-08 18:00:00 24.0 11.8 16.6 26.9 18.7- 4620.0wxwxwxwxwx2wx--21011.8 992.9 0.1- 0.012------
2019-08-08 17:00:00 25.7 11.2 17.0--- 4030.0wxwxwxwx3wx--31011.4 992.6 -0.1---------
2019-08-08 16:00:00 26.3 11.3 17.3--- 3930.0wxwxwxwx2wx---1011.3 992.6 -0.5---------
2019-08-08 15:00:00 26.5 11.1 17.3--- 3830.0wxwxwxwx4wx---1011.5 992.8 -0.3---------
2019-08-08 14:00:00 25.9 11.0 17.0--- 3930.0wxwxwxwxwx3wx--31011.5 992.7 -0.5---------
2019-08-08 13:00:00 24.9 12.2 17.2--- 4530.0wxwxwxwx3wx--31011.9 993.1 0.1---------
2019-08-08 12:00:00 26.1 12.3 17.7--- 4230.0wxwxwxwx3wx-931011.9 993.1 0.2- 0.06------
2019-08-08 11:00:00 24.9 11.2 16.7--- 4230.0wxwxwxwx3wx--31012.0 993.2 0.4---------
2019-08-08 10:00:00 24.7 12.4 17.2--- 4630.0wxwxwxwx3wx8931011.8 993.0 0.4---------
2019-08-08 09:00:00 23.2 12.9 16.8--- 5230.0wxwxwx4wx-941011.8 992.9 0.8---------
2019-08-08 08:00:00 21.9 15.1 17.4--- 6520.0wxwxwx3wx--31011.8 992.8 1.3---------
2019-08-08 07:00:00 20.2 15.5 17.0--- 7420.0wxwxwx3wx--31011.7 992.6 1.8---------
2019-08-08 06:00:00 18.7 16.0 16.8 26.0 16.7 17 8420.0wx-wx3wx--31011.3 992.1 1.9 10.1 3.012wx-w1- 6.1
2019-08-08 05:00:00 17.3 16.1 16.4--- 9320.0wxwxwxwx2wx---1010.8 991.5 1.5---------
2019-08-08 04:00:00 16.8 15.9 16.1--- 9420.0wx-wxwx2wx---1010.1 990.8 1.1---------
2019-08-08 03:00:00 16.9 16.2 16.4--- 9620.0wx-wx3wx--31009.5 990.2 1.1---wx-w1--
2019-08-08 02:00:00 17.4 16.7 16.9--- 9620.0wxwxwxwx2wx--21009.3 990.0 1.2---------
2019-08-08 01:00:00 17.9 17.4 17.5--- 9720.0wxwxwxwx3wx--31008.9 989.7 1.1---wx---
2019-08-08 00:00:00 18.0 17.5 17.6--- 9710.0wxwxwx3wx-831008.3 989.1 0.1- 3.06wx-w1w2--
2019-08-07 23:00:00 18.8 17.9 18.1--- 9515.0wxwxwx2wx--21007.9 988.8 0.4---wx-w1w2--
2019-08-07 22:00:00 19.2 18.3 18.5--- 9515.0wxwxwx1wx--11007.7 988.6 0.5---wx-w1w2--
2019-08-07 21:00:00 19.8 18.0 18.5--- 8910.0wxwxwx2wx-821008.1 989.0 2.4---wx-w1w2--
2019-08-07 20:00:00 21.5 17.6 18.8--- 7920.0wxwxwx2wx---1007.4 988.4 1.4---wx---
2019-08-07 19:00:00 22.6 17.2 18.9--- 7220.0wxwxwx1wx8--1007.0 988.1 0.8---wx---
2019-08-07 18:00:00 26.0 17.7 20.4 28.1 17.8- 6030.0wxwxwxwx1wx--11005.2 986.6 -1.2- 7.012------
2019-08-07 17:00:00 27.4 16.1 20.1--- 5030.0wxwxwxwxwx1wx--11005.6 987.0 -1.2---------
2019-08-07 16:00:00 27.9 16.0 20.2--- 4830.0wxwxwxwxwx3wx--31005.8 987.3 -1.7---------
2019-08-07 15:00:00 27.6 17.2 20.8--- 5330.0wxwxwxwxwx2wx--21006.4 987.8 -1.5---------
2019-08-07 14:00:00 27.2 17.5 20.8--- 5530.0wxwxwxwxwx3wx---1006.8 988.2 -1.8---------
2019-08-07 13:00:00 26.3 17.7 20.6--- 5930.0wxwxwxwxwx3wx--31007.7 989.0 -1.6---------
2019-08-07 12:00:00 25.2 18.2 20.4--- 6530.0wxwxwxwxwx1wx--11008.0 989.3 -1.1- 7.06wx-w1w2--
2019-08-07 11:00:00 22.5 17.9 19.3--- 7530.0wxwxwxwx2wx--21008.9 990.0 -0.7---------
2019-08-07 10:00:00 19.8 18.4 18.8--- 9220.0wxwxwxwx2wx--21009.7 990.6 0.6---wx---
2019-08-07 09:00:00 18.9 18.2 18.4--- 9620.0wxwxwxwx1wx--11009.6 990.4 0.3---wx-w1w2--
2019-08-07 08:00:00 18.3 17.7 17.9--- 9610.0wxwxwx2wx--21009.9 990.7 1.1---wx-w1--
2019-08-07 07:00:00 17.8 17.1 17.3--- 968.0wxwxwxwx2wx--21009.2 990.0 -0.7---wx-w1w2--
2019-08-07 06:00:00 18.6 17.7 17.9 25.5 16.7 16 9515.0wxwxwxwx1wx--11009.3 990.1 0.0 2.6 3.012wx-w1- 10.4
2019-08-07 05:00:00 18.2 17.3 17.5--- 9515.0wxwxwx2wx--21008.8 989.6 -0.4---wx---
2019-08-07 04:00:00 18.1 16.5 16.9--- 9020.0wxwxwxwx1wx---1009.9 990.7 0.6---------
2019-08-07 03:00:00 17.8 16.6 16.9--- 9310.0wx-wx2wx--21009.3 990.1 -0.2---wx---
2019-08-07 02:00:00 17.2 16.8 16.9--- 9810.0wx-wx1wx--11009.3 990.0 -0.6---wx---
2019-08-07 01:00:00 18.5 17.1 17.5--- 9220.0wx-wx1wx--11009.3 990.1 -0.7---------
2019-08-07 00:00:00 19.0 17.6 18.0--- 9220.0wx-wx1wx-1111009.5 990.3 -0.2- 3.06wx-w1w2--
1.2 ms

 

Print Friendly, PDF & Email